Time;durP1;ratioP1;P1;durP2;ratioP2;P2;SDS_P1;SDS_P2;PMS_P1;PMS_P2;Temp;Humidity;BMP_temperature;BMP_pressure;BME280_temperature;BME280_humidity;BME280_pressure;Samples;Min_cycle;Max_cycle;Signal;HPM_P1;HPM_P2
2022/12/10 00:01:10;;;;;;;108.32;50.97;;;-1.20;99.90;;;;;;4953823;28;20057;-73
2022/12/10 00:03:37;;;;;;;102.00;50.55;;;-1.20;99.90;;;;;;4951561;28;20491;-73
2022/12/10 00:06:07;;;;;;;102.88;48.80;;;-1.30;99.90;;;;;;4954830;28;20066;-72
2022/12/10 00:08:34;;;;;;;103.75;50.03;;;-1.30;99.90;;;;;;4954007;28;20042;-72
2022/12/10 00:11:06;;;;;;;97.20;45.90;;;-1.30;99.90;;;;;;4950074;28;20048;-73
2022/12/10 00:13:34;;;;;;;93.72;45.85;;;-1.50;99.90;;;;;;4969069;28;20316;-73
2022/12/10 00:16:01;;;;;;;102.75;46.42;;;-1.80;99.90;;;;;;4971245;28;20450;-75
2022/12/10 00:18:29;;;;;;;95.10;47.38;;;-1.90;99.90;;;;;;4948310;28;20566;-73
2022/12/10 00:20:56;;;;;;;103.72;50.97;;;-2.00;99.90;;;;;;4952773;28;20226;-73
2022/12/10 00:23:23;;;;;;;104.15;46.33;;;-2.10;99.90;;;;;;4948705;28;20046;-73
2022/12/10 00:25:50;;;;;;;95.70;47.80;;;-2.30;99.90;;;;;;4960375;28;20499;-73
2022/12/10 00:28:17;;;;;;;100.68;49.33;;;-2.40;99.90;;;;;;4962237;28;20139;-73
2022/12/10 00:30:44;;;;;;;109.13;48.53;;;-2.40;99.90;;;;;;4958109;28;20054;-73
2022/12/10 00:33:11;;;;;;;115.30;51.05;;;-2.40;99.90;;;;;;4935890;28;20174;-74
2022/12/10 00:35:38;;;;;;;113.10;52.45;;;-2.30;99.90;;;;;;4938444;28;20043;-73
2022/12/10 00:38:05;;;;;;;110.18;50.03;;;-2.30;99.90;;;;;;4952053;28;20053;-73
2022/12/10 00:40:32;;;;;;;121.13;49.65;;;-2.40;99.90;;;;;;4962640;28;20627;-73
2022/12/10 00:42:59;;;;;;;111.68;50.45;;;-2.40;99.90;;;;;;4951524;28;20046;-76
2022/12/10 00:45:26;;;;;;;113.50;51.75;;;-2.20;99.90;;;;;;4948519;28;20051;-74
2022/12/10 00:47:53;;;;;;;113.95;48.88;;;-2.10;99.90;;;;;;4972884;28;20406;-75
2022/12/10 00:50:20;;;;;;;105.47;49.50;;;-2.20;99.90;;;;;;4964688;28;20062;-75
2022/12/10 00:52:47;;;;;;;95.28;44.78;;;-2.40;99.90;;;;;;4949450;28;20066;-75
2022/12/10 00:55:14;;;;;;;100.38;44.65;;;-2.60;99.90;;;;;;4947278;28;20126;-75
2022/12/10 00:57:40;;;;;;;96.63;44.10;;;-2.70;99.90;;;;;;4969485;28;20215;-72
2022/12/10 01:00:08;;;;;;;97.20;44.97;;;-2.70;99.90;;;;;;4950281;28;20512;-75
2022/12/10 01:02:35;;;;;;;96.25;46.17;;;-2.70;99.90;;;;;;4966459;28;20238;-75
2022/12/10 01:05:02;;;;;;;92.78;44.22;;;-2.90;99.90;;;;;;4946240;28;20042;-74
2022/12/10 01:07:30;;;;;;;92.50;43.45;;;-3.00;99.90;;;;;;4948641;28;20051;-74
2022/12/10 01:09:56;;;;;;;95.88;45.55;;;-3.00;99.90;;;;;;4962682;28;20410;-74
2022/12/10 01:12:23;;;;;;;86.90;42.58;;;-2.80;99.90;;;;;;4942333;28;20042;-74
2022/12/10 01:14:50;;;;;;;94.45;47.10;;;-2.70;99.90;;;;;;4955751;28;20124;-74
2022/12/10 01:17:17;;;;;;;93.72;45.53;;;-2.80;99.90;;;;;;4973576;28;20049;-74
2022/12/10 01:19:44;;;;;;;78.35;41.13;;;-2.90;99.90;;;;;;4954175;28;20047;-75
2022/12/10 01:22:10;;;;;;;82.68;40.95;;;-3.00;99.90;;;;;;4953825;28;20132;-74
2022/12/10 01:24:37;;;;;;;83.18;39.97;;;-3.00;99.90;;;;;;4974207;28;20047;-73
2022/12/10 01:27:05;;;;;;;88.82;43.38;;;-3.00;99.90;;;;;;4941936;28;20454;-76
2022/12/10 01:29:31;;;;;;;93.68;44.20;;;-3.00;99.90;;;;;;4975633;28;20791;-76
2022/12/10 01:32:00;;;;;;;88.07;43.50;;;-3.10;99.90;;;;;;4967736;28;20042;-75
2022/12/10 01:34:26;;;;;;;80.80;38.88;;;-3.10;99.90;;;;;;4966611;28;20150;-74
2022/12/10 01:36:55;;;;;;;81.00;40.75;;;-3.20;99.90;;;;;;4947749;28;20228;-73
2022/12/10 01:39:23;;;;;;;85.85;40.97;;;-3.00;99.90;;;;;;4942725;28;20212;-72
2022/12/10 01:41:53;;;;;;;77.63;40.20;;;-3.10;99.90;;;;;;4968666;28;20607;-73
2022/12/10 01:44:19;;;;;;;86.72;39.70;;;-3.10;99.90;;;;;;4957306;28;20058;-75
2022/12/10 01:46:49;;;;;;;85.63;41.45;;;-3.10;99.90;;;;;;4973789;28;21563;-75
2022/12/10 01:49:24;;;;;;;84.97;40.47;;;-3.20;99.90;;;;;;4953469;28;20418;-75
2022/12/10 01:51:55;;;;;;;75.47;38.28;;;-3.00;99.90;;;;;;4957425;28;20039;-75
2022/12/10 01:54:34;;;;;;;81.55;37.13;;;-3.20;99.90;;;;;;4938473;28;20543;-74
2022/12/10 01:57:08;;;;;;;77.60;39.83;;;-3.40;99.90;;;;;;4955163;28;20527;-74
2022/12/10 01:59:36;;;;;;;84.20;38.67;;;-3.50;99.90;;;;;;4944716;28;20046;-75
2022/12/10 02:02:26;;;;;;;74.40;36.58;;;-3.50;99.90;;;;;;4954833;28;20050;-75
2022/12/10 02:05:13;;;;;;;82.88;36.42;;;-3.60;99.90;;;;;;4956391;28;20156;-74
2022/12/10 02:07:55;;;;;;;71.68;37.58;;;-3.70;99.90;;;;;;4965620;28;20046;-75
2022/12/10 02:10:30;;;;;;;75.72;38.42;;;-3.70;99.90;;;;;;4951869;28;20054;-75
2022/12/10 02:13:06;;;;;;;101.88;46.15;;;-3.70;99.90;;;;;;4972485;28;20050;-74
2022/12/10 02:15:39;;;;;;;77.43;38.80;;;-3.80;99.90;;;;;;4957781;28;20157;-74
2022/12/10 02:18:13;;;;;;;71.88;39.13;;;-4.00;99.90;;;;;;4961909;28;20045;-74
2022/12/10 02:20:48;;;;;;;75.22;38.97;;;-4.00;99.90;;;;;;4975316;28;20214;-74
2022/12/10 02:23:33;;;;;;;88.28;42.08;;;-4.10;99.90;;;;;;4952399;28;20039;-74
2022/12/10 02:26:22;;;;;;;107.55;49.05;;;-4.20;99.90;;;;;;4964781;28;20167;-74
2022/12/10 02:29:15;;;;;;;86.00;43.03;;;-4.00;99.90;;;;;;4960002;28;20048;-73
2022/12/10 02:32:12;;;;;;;99.57;46.15;;;-4.00;99.90;;;;;;4938426;28;20415;-74
2022/12/10 02:34:44;;;;;;;83.53;41.53;;;-4.20;99.90;;;;;;4936710;28;20196;-74
2022/12/10 02:37:30;;;;;;;86.57;45.67;;;-4.10;99.90;;;;;;4948924;28;20051;-74
2022/12/10 02:40:01;;;;;;;77.22;39.38;;;-4.20;99.90;;;;;;4954714;28;20133;-74
2022/12/10 02:42:37;;;;;;;83.28;42.13;;;-4.30;99.90;;;;;;4965169;28;20518;-73
2022/12/10 02:45:05;;;;;;;74.82;37.97;;;-4.30;99.90;;;;;;4973782;28;20170;-73
2022/12/10 02:47:32;;;;;;;79.03;40.15;;;-4.30;99.90;;;;;;4955171;28;20054;-73
2022/12/10 02:49:59;;;;;;;85.75;41.00;;;-4.30;99.90;;;;;;4970154;28;20049;-73
2022/12/10 02:52:27;;;;;;;81.38;41.85;;;-4.30;99.90;;;;;;4945038;28;20049;-73
2022/12/10 02:54:54;;;;;;;74.30;39.47;;;-4.40;99.90;;;;;;4961681;28;20316;-73
2022/12/10 02:57:43;;;;;;;82.93;41.13;;;-4.50;99.90;;;;;;4954099;28;20042;-73
2022/12/10 03:00:19;;;;;;;73.80;39.42;;;-4.20;99.90;;;;;;4962473;28;20232;-73
2022/12/10 03:03:22;;;;;;;82.07;41.50;;;-4.30;99.90;;;;;;4963988;28;20310;-73
2022/12/10 03:05:59;;;;;;;76.38;39.78;;;-4.20;99.90;;;;;;4947906;28;20046;-73
2022/12/10 03:08:37;;;;;;;82.10;44.78;;;-4.00;99.90;;;;;;4933403;28;20439;-73
2022/12/10 03:11:08;;;;;;;75.20;41.70;;;-3.90;99.90;;;;;;4961426;28;20045;-73
2022/12/10 03:13:51;;;;;;;83.72;41.95;;;-3.80;99.90;;;;;;4947550;28;20046;-73
2022/12/10 03:16:19;;;;;;;101.63;46.15;;;-3.70;99.90;;;;;;4967020;23;20480;-73
2022/12/10 03:18:51;;;;;;;114.28;48.20;;;-3.60;99.90;;;;;;4994279;28;20045;-73
2022/12/10 03:21:19;;;;;;;170.27;54.40;;;-3.60;99.90;;;;;;4968438;28;20394;-72
2022/12/10 03:23:47;;;;;;;161.32;54.30;;;-3.50;99.90;;;;;;4967886;28;20205;-72
2022/12/10 03:26:15;;;;;;;230.88;57.60;;;-3.40;99.90;;;;;;4971802;28;20034;-70
2022/12/10 03:28:49;;;;;;;269.83;64.00;;;-3.30;99.90;;;;;;4953855;28;20590;-72
2022/12/10 03:31:17;;;;;;;342.65;69.88;;;-3.10;99.90;;;;;;4961973;28;20427;-72
2022/12/10 03:33:46;;;;;;;268.35;61.25;;;-3.10;99.90;;;;;;4951099;28;20533;-72
2022/12/10 03:36:14;;;;;;;305.17;64.47;;;-2.90;99.90;;;;;;4967640;28;20490;-71
2022/12/10 03:38:42;;;;;;;269.23;60.83;;;-2.90;99.90;;;;;;4965264;28;20125;-72
2022/12/10 03:41:09;;;;;;;308.33;62.53;;;-2.80;99.90;;;;;;4954385;28;20048;-72
2022/12/10 03:43:50;;;;;;;406.15;74.75;;;-3.00;99.90;;;;;;4971741;28;20129;-72
2022/12/10 03:46:17;;;;;;;336.95;67.50;;;-3.00;99.90;;;;;;4954094;28;20106;-70
2022/12/10 03:48:43;;;;;;;336.15;66.85;;;-3.00;99.90;;;;;;4951196;28;20344;-70
2022/12/10 03:51:10;;;;;;;390.08;72.93;;;-3.10;99.90;;;;;;4966327;28;20599;-72
2022/12/10 03:53:37;;;;;;;378.27;74.43;;;-3.10;99.90;;;;;;4962107;28;20129;-70
2022/12/10 03:56:04;;;;;;;332.88;71.07;;;-3.20;99.90;;;;;;4949143;28;20393;-73
2022/12/10 03:58:30;;;;;;;580.67;92.72;;;-3.10;99.90;;;;;;4955237;28;20344;-71
2022/12/10 04:00:57;;;;;;;349.45;66.78;;;-3.10;99.90;;;;;;4951057;28;20037;-70
2022/12/10 04:03:24;;;;;;;426.40;75.75;;;-3.00;99.90;;;;;;4947220;28;20038;-72
2022/12/10 04:05:50;;;;;;;445.48;77.75;;;-3.00;99.90;;;;;;4962156;28;20056;-72
2022/12/10 04:08:17;;;;;;;340.58;67.65;;;-3.00;99.90;;;;;;4947068;28;20561;-71
2022/12/10 04:10:44;;;;;;;442.33;74.43;;;-3.00;99.90;;;;;;4970530;28;20033;-72
2022/12/10 04:18:42;;;;;;;349.35;63.55;;;-3.10;99.90;;;;;;4969704;28;20045;-70
2022/12/10 04:26:51;;;;;;;344.00;65.05;;;-3.10;99.90;;;;;;4967707;28;20056;-70
2022/12/10 04:29:23;;;;;;;383.15;75.57;;;-3.10;99.90;;;;;;4962461;28;20060;-70
2022/12/10 04:31:50;;;;;;;478.50;83.18;;;-3.10;99.90;;;;;;4969080;28;20134;-71
2022/12/10 04:34:17;;;;;;;399.35;80.78;;;-2.90;99.90;;;;;;4948222;28;20050;-71
2022/12/10 04:36:44;;;;;;;357.98;66.20;;;-2.80;99.90;;;;;;4961206;28;20042;-70
2022/12/10 04:39:12;;;;;;;342.58;73.30;;;-2.90;99.90;;;;;;4964296;28;20053;-71
2022/12/10 04:41:43;;;;;;;325.40;69.47;;;-2.90;99.90;;;;;;4944638;28;20542;-72
2022/12/10 04:44:10;;;;;;;382.33;75.68;;;-2.90;99.90;;;;;;4951485;28;20104;-71
2022/12/10 04:46:37;;;;;;;270.67;69.18;;;-2.90;99.90;;;;;;4947635;28;20045;-70
2022/12/10 04:49:05;;;;;;;381.92;71.80;;;-2.90;99.90;;;;;;4952279;28;20503;-70
2022/12/10 04:51:32;;;;;;;279.58;66.80;;;-2.80;99.90;;;;;;4940019;28;20376;-70
2022/12/10 04:53:59;;;;;;;321.17;68.75;;;-2.80;99.90;;;;;;4968565;28;20072;-72
2022/12/10 04:56:26;;;;;;;224.00;62.22;;;-2.90;99.90;;;;;;4955060;28;20549;-70
2022/12/10 04:58:56;;;;;;;271.42;67.28;;;-2.90;99.90;;;;;;4964596;28;20050;-71
2022/12/10 05:01:24;;;;;;;266.55;66.53;;;-2.80;99.90;;;;;;4942769;28;20042;-71
2022/12/10 05:03:50;;;;;;;215.95;60.53;;;-2.80;99.90;;;;;;4958340;28;20267;-72
2022/12/10 05:06:18;;;;;;;305.13;71.07;;;-2.80;99.90;;;;;;4950420;28;20132;-70
2022/12/10 05:08:46;;;;;;;180.68;61.67;;;-2.90;99.90;;;;;;4966372;28;20078;-72
2022/12/10 05:11:16;;;;;;;188.55;60.60;;;-3.00;99.90;;;;;;4949698;28;20252;-71
2022/12/10 05:13:43;;;;;;;259.23;68.03;;;-2.80;99.90;;;;;;4947605;28;20065;-71
2022/12/10 05:16:14;;;;;;;214.73;63.38;;;-2.80;99.90;;;;;;4964135;28;20038;-70
2022/12/10 05:18:40;;;;;;;338.30;74.30;;;-2.70;99.90;;;;;;4953666;28;20117;-70
2022/12/10 05:21:12;;;;;;;202.32;64.13;;;-2.60;99.90;;;;;;4952890;28;20305;-71
2022/12/10 05:23:44;;;;;;;375.70;77.03;;;-2.50;99.90;;;;;;4957426;28;20407;-70
2022/12/10 05:26:12;;;;;;;196.38;64.63;;;-2.40;99.90;;;;;;4946321;28;20042;-72
2022/12/10 05:28:47;;;;;;;234.30;66.70;;;-2.40;99.90;;;;;;4972901;28;20409;-71
2022/12/10 05:31:19;;;;;;;171.93;64.60;;;-2.40;99.90;;;;;;4961386;28;20049;-72
2022/12/10 05:33:47;;;;;;;211.85;65.75;;;-2.30;99.90;;;;;;4964377;28;20038;-74
2022/12/10 05:36:16;;;;;;;201.93;68.80;;;-2.40;99.90;;;;;;4949035;28;20035;-70
2022/12/10 05:38:43;;;;;;;196.93;67.45;;;-2.40;99.90;;;;;;4968551;28;20045;-71
2022/12/10 05:41:16;;;;;;;214.75;64.93;;;-2.30;99.90;;;;;;4946137;28;20042;-70
2022/12/10 05:43:43;;;;;;;229.13;68.20;;;-2.40;99.90;;;;;;4960319;28;20049;-69
2022/12/10 05:46:13;;;;;;;243.35;69.03;;;-2.40;99.90;;;;;;4955017;28;20050;-70
2022/12/10 05:48:40;;;;;;;227.93;69.05;;;-2.40;99.90;;;;;;4956305;28;20100;-72
2022/12/10 05:51:13;;;;;;;249.38;73.70;;;-2.50;99.90;;;;;;4971253;28;20053;-70
2022/12/10 05:53:41;;;;;;;235.93;70.65;;;-2.50;99.90;;;;;;4937452;28;20038;-72
2022/12/10 05:56:18;;;;;;;246.30;68.30;;;-2.40;99.90;;;;;;4943531;28;20224;-72
2022/12/10 05:58:46;;;;;;;206.65;65.30;;;-2.40;99.90;;;;;;4946219;28;20340;-71
2022/12/10 06:01:15;;;;;;;201.95;66.53;;;-2.50;99.90;;;;;;4954024;28;20411;-70
2022/12/10 06:03:42;;;;;;;208.95;66.32;;;-2.30;99.90;;;;;;4968168;28;20060;-72
2022/12/10 06:06:10;;;;;;;288.55;73.80;;;-2.20;99.90;;;;;;4949162;28;20065;-70
2022/12/10 06:08:38;;;;;;;209.43;69.00;;;-2.30;99.90;;;;;;4943148;28;20137;-71
2022/12/10 06:11:08;;;;;;;230.75;71.28;;;-2.10;99.90;;;;;;4950046;28;20046;-71
2022/12/10 06:13:36;;;;;;;236.18;71.38;;;-2.10;99.90;;;;;;4947888;28;20072;-72
2022/12/10 06:16:07;;;;;;;256.48;71.80;;;-2.20;99.90;;;;;;4964888;28;20484;-72
2022/12/10 06:18:34;;;;;;;209.00;71.57;;;-2.10;99.90;;;;;;4946966;28;20626;-70
2022/12/10 06:21:05;;;;;;;207.40;65.88;;;-2.10;99.90;;;;;;4950943;28;20491;-71
2022/12/10 06:23:36;;;;;;;198.93;68.90;;;-2.00;99.90;;;;;;4950660;28;20051;-71
2022/12/10 06:26:09;;;;;;;217.38;71.45;;;-2.20;99.90;;;;;;4969403;28;20046;-72
2022/12/10 06:28:36;;;;;;;191.70;66.90;;;-2.10;99.90;;;;;;4934706;28;20058;-71
2022/12/10 06:31:04;;;;;;;208.57;72.60;;;-2.10;99.90;;;;;;4975965;28;20552;-70
2022/12/10 06:33:30;;;;;;;199.18;68.10;;;-2.00;99.90;;;;;;4960124;28;20419;-70
2022/12/10 06:35:57;;;;;;;198.07;66.00;;;-2.00;99.90;;;;;;4965210;28;20037;-71
2022/12/10 06:38:24;;;;;;;214.45;73.53;;;-1.90;99.90;;;;;;4958039;28;20097;-72
2022/12/10 06:40:51;;;;;;;218.45;73.30;;;-1.90;99.90;;;;;;4971113;28;20070;-73
2022/12/10 06:43:17;;;;;;;221.73;71.93;;;-2.00;99.90;;;;;;4965614;28;20109;-73
2022/12/10 06:45:44;;;;;;;213.25;71.50;;;-1.90;99.90;;;;;;4963632;28;20070;-73
2022/12/10 06:48:11;;;;;;;206.00;70.78;;;-1.80;99.90;;;;;;4972955;28;20187;-72
2022/12/10 06:50:38;;;;;;;226.32;71.35;;;-1.90;99.90;;;;;;4950515;28;20417;-72
2022/12/10 06:53:05;;;;;;;245.80;75.43;;;-1.80;99.90;;;;;;4967441;28;20046;-72
2022/12/10 06:55:32;;;;;;;250.85;75.05;;;-1.80;99.90;;;;;;4948856;28;20042;-71
2022/12/10 06:57:58;;;;;;;226.10;70.80;;;-1.80;99.90;;;;;;4951439;28;20451;-73
2022/12/10 07:00:25;;;;;;;223.70;74.38;;;-2.00;99.90;;;;;;4970200;28;20038;-72
2022/12/10 07:02:52;;;;;;;214.20;71.40;;;-2.00;99.90;;;;;;4947751;28;20060;-71
2022/12/10 07:05:19;;;;;;;200.45;66.25;;;-2.00;99.90;;;;;;4970971;28;20045;-71
2022/12/10 07:07:46;;;;;;;222.75;73.05;;;-1.90;99.90;;;;;;4933540;28;20542;-71
2022/12/10 07:10:13;;;;;;;195.10;69.78;;;-2.00;99.90;;;;;;4954281;28;20116;-71
2022/12/10 07:12:40;;;;;;;192.80;66.00;;;-1.90;99.90;;;;;;4948823;28;22058;-73
2022/12/10 07:15:07;;;;;;;179.80;64.68;;;-2.00;99.90;;;;;;4968799;28;20433;-74
2022/12/10 07:17:34;;;;;;;170.73;63.45;;;-2.00;99.90;;;;;;4962412;28;20052;-74
2022/12/10 07:20:02;;;;;;;170.30;63.33;;;-2.00;99.90;;;;;;4952223;28;20042;-71
2022/12/10 07:22:29;;;;;;;226.30;81.55;;;-1.90;99.90;;;;;;4949841;28;20057;-71
2022/12/10 07:24:55;;;;;;;196.70;70.63;;;-1.80;99.90;;;;;;4956769;28;20050;-71
2022/12/10 07:27:22;;;;;;;173.93;65.05;;;-1.80;99.90;;;;;;4965162;28;20034;-72
2022/12/10 07:29:49;;;;;;;168.23;62.28;;;-1.70;99.90;;;;;;4967187;28;20042;-74
2022/12/10 07:32:16;;;;;;;176.00;65.68;;;-1.60;99.90;;;;;;4969025;28;20401;-73
2022/12/10 07:34:43;;;;;;;179.75;66.38;;;-1.50;99.90;;;;;;4949974;28;20054;-72
2022/12/10 07:37:09;;;;;;;165.93;65.15;;;-1.40;99.90;;;;;;4965214;28;20474;-74
2022/12/10 07:39:36;;;;;;;191.25;69.25;;;-1.40;99.90;;;;;;4970089;28;20037;-73
2022/12/10 07:42:03;;;;;;;175.60;66.53;;;-1.30;99.90;;;;;;4969343;28;20305;-74
2022/12/10 07:44:30;;;;;;;167.10;66.30;;;-1.30;99.90;;;;;;4945741;28;20196;-73
2022/12/10 07:46:57;;;;;;;172.05;65.55;;;-1.30;99.90;;;;;;4960209;28;20292;-72
2022/12/10 07:49:24;;;;;;;180.07;67.25;;;-1.40;99.90;;;;;;4946940;28;20547;-70
2022/12/10 07:51:51;;;;;;;170.57;67.20;;;-1.30;99.90;;;;;;4953245;28;20965;-72
2022/12/10 07:54:18;;;;;;;175.77;69.38;;;-1.20;99.90;;;;;;4969567;28;20053;-72
2022/12/10 07:56:45;;;;;;;182.27;77.63;;;-1.30;99.90;;;;;;4952264;28;20316;-73
2022/12/10 07:59:12;;;;;;;191.18;76.63;;;-1.20;99.90;;;;;;4969301;28;20038;-73
2022/12/10 08:01:40;;;;;;;193.48;75.90;;;-1.30;99.90;;;;;;4963037;28;20041;-72
2022/12/10 08:04:07;;;;;;;189.77;75.25;;;-1.20;99.90;;;;;;4954226;28;20056;-72
2022/12/10 08:06:34;;;;;;;204.50;78.18;;;-1.10;99.90;;;;;;4946518;28;20046;-71
2022/12/10 08:09:01;;;;;;;202.45;73.70;;;-1.20;99.90;;;;;;4967658;28;20515;-71
2022/12/10 08:11:28;;;;;;;179.57;72.80;;;-1.20;99.90;;;;;;4949680;28;20133;-73
2022/12/10 08:13:55;;;;;;;208.88;76.63;;;-1.20;99.90;;;;;;4967753;28;20051;-72
2022/12/10 08:16:26;;;;;;;190.13;75.20;;;-1.20;99.90;;;;;;4947625;28;20043;-71
2022/12/10 08:18:54;;;;;;;207.88;80.15;;;-1.10;99.90;;;;;;4974894;28;20071;-71
2022/12/10 08:21:24;;;;;;;200.57;80.00;;;-1.00;99.90;;;;;;4967669;28;20987;-72
2022/12/10 08:23:51;;;;;;;199.82;80.05;;;-0.90;99.90;;;;;;4966951;28;21333;-72
2022/12/10 08:26:20;;;;;;;254.25;97.93;;;-0.90;99.90;;;;;;4970548;28;20052;-72
2022/12/10 08:28:48;;;;;;;234.38;92.78;;;-0.90;99.90;;;;;;4950824;28;20133;-72
2022/12/10 08:31:16;;;;;;;199.07;82.93;;;-0.90;99.90;;;;;;4949921;28;20060;-73
2022/12/10 08:33:43;;;;;;;215.25;88.05;;;-0.90;99.90;;;;;;4950486;28;20135;-72
2022/12/10 08:36:12;;;;;;;224.73;90.22;;;-0.80;99.90;;;;;;4948931;28;20517;-72
2022/12/10 08:38:39;;;;;;;220.77;87.93;;;-0.80;99.90;;;;;;4947903;28;20046;-71
2022/12/10 08:41:09;;;;;;;207.23;85.05;;;-0.80;99.90;;;;;;4964608;28;20133;-71
2022/12/10 08:43:36;;;;;;;217.95;88.05;;;-0.80;99.90;;;;;;4948418;28;20920;-73
2022/12/10 08:46:03;;;;;;;214.50;88.95;;;-1.00;99.90;;;;;;4958855;28;20042;-73
2022/12/10 08:48:30;;;;;;;227.05;90.03;;;-1.00;99.90;;;;;;4958160;28;20049;-71
2022/12/10 08:50:57;;;;;;;204.25;84.65;;;-0.80;99.90;;;;;;4967967;28;20128;-73
2022/12/10 08:53:24;;;;;;;202.48;84.07;;;-0.80;99.90;;;;;;4971481;28;20041;-71
2022/12/10 08:55:53;;;;;;;182.48;80.68;;;-0.90;99.90;;;;;;4965474;28;20653;-73
2022/12/10 08:58:21;;;;;;;194.50;83.25;;;-0.90;99.90;;;;;;4949517;28;20054;-73
2022/12/10 09:00:48;;;;;;;206.32;85.97;;;-0.80;99.90;;;;;;4972417;28;20303;-73
2022/12/10 09:03:16;;;;;;;225.73;96.25;;;-0.80;99.90;;;;;;4948927;28;20057;-71
2022/12/10 09:05:43;;;;;;;230.23;94.38;;;-0.80;99.90;;;;;;4946644;28;20054;-72
2022/12/10 09:08:10;;;;;;;218.07;90.70;;;-0.70;99.90;;;;;;4980112;28;20197;-73
2022/12/10 09:10:38;;;;;;;208.15;92.63;;;-0.70;99.90;;;;;;4961340;28;20046;-71
2022/12/10 09:13:05;;;;;;;215.35;95.30;;;-0.70;99.90;;;;;;4952841;28;20235;-72
2022/12/10 09:15:32;;;;;;;183.77;83.85;;;-0.60;99.90;;;;;;4967636;23;20049;-78
2022/12/10 09:18:27;;;;;;;202.63;88.07;;;-0.50;99.90;;;;;;4971043;28;20072;-76
2022/12/10 09:20:54;;;;;;;209.80;93.70;;;-0.40;99.90;;;;;;4971181;28;20046;-76
2022/12/10 09:23:21;;;;;;;167.13;81.43;;;-0.30;99.90;;;;;;4980236;28;20045;-76
2022/12/10 09:25:49;;;;;;;179.45;89.63;;;-0.30;99.90;;;;;;4990859;28;20044;-76
2022/12/10 09:28:16;;;;;;;162.02;82.03;;;-0.20;99.90;;;;;;4976897;28;20042;-77
2022/12/10 09:30:42;;;;;;;179.25;88.65;;;-0.20;99.90;;;;;;4987377;28;20042;-76
2022/12/10 09:33:09;;;;;;;177.15;86.70;;;-0.20;99.90;;;;;;4992407;28;20045;-77
2022/12/10 09:35:41;;;;;;;189.43;86.82;;;-0.20;99.90;;;;;;4984160;28;20054;-77
2022/12/10 09:38:08;;;;;;;179.55;85.63;;;-0.20;99.90;;;;;;4985161;28;20455;-76
2022/12/10 09:40:41;;;;;;;128.25;73.40;;;-0.30;99.90;;;;;;4983889;28;20042;-76
2022/12/10 09:43:41;;;;;;;151.37;80.90;;;-0.30;99.90;;;;;;4970943;28;20072;-77
2022/12/10 09:46:33;;;;;;;146.93;80.22;;;-0.20;99.90;;;;;;4986653;28;20041;-78
2022/12/10 09:49:09;;;;;;;129.20;71.28;;;-0.20;99.90;;;;;;4986122;28;20110;-77
2022/12/10 09:51:39;;;;;;;109.53;70.15;;;-0.30;99.90;;;;;;4974080;28;20054;-77
2022/12/10 09:54:32;;;;;;;108.45;68.32;;;-0.30;99.90;;;;;;4972228;28;20684;-76
2022/12/10 09:57:00;;;;;;;89.30;63.13;;;-0.40;99.90;;;;;;4986159;28;20035;-78
2022/12/10 09:59:40;;;;;;;79.97;60.90;;;-0.50;99.90;;;;;;4991188;28;20128;-77
2022/12/10 10:02:26;;;;;;;84.78;61.08;;;-0.60;99.90;;;;;;4989166;28;20034;-77
2022/12/10 10:05:06;;;;;;;75.60;57.88;;;-0.90;99.90;;;;;;4987798;28;20054;-77
2022/12/10 10:07:44;;;;;;;71.97;55.42;;;-0.80;99.90;;;;;;4991269;28;20054;-77
2022/12/10 10:10:47;;;;;;;59.28;49.53;;;-0.60;99.90;;;;;;4990833;28;20509;-77
2022/12/10 10:13:24;;;;;;;53.25;43.65;;;-0.60;99.90;;;;;;4891234;29;20050;-77
2022/12/10 10:15:51;;;;;;;52.60;42.17;;;-0.60;99.90;;;;;;4979707;28;20804;-77
2022/12/10 10:18:28;;;;;;;49.80;41.03;;;-0.60;99.90;;;;;;4992252;28;20044;-77
2022/12/10 10:20:57;;;;;;;46.83;37.58;;;-0.60;99.90;;;;;;4968628;28;20041;-78
2022/12/10 10:23:23;;;;;;;45.70;38.53;;;-0.70;99.90;;;;;;4958936;28;20044;-78
2022/12/10 10:25:50;;;;;;;43.55;38.78;;;-0.70;99.90;;;;;;4988701;28;20388;-76
2022/12/10 10:28:20;;;;;;;43.78;38.60;;;-0.60;99.90;;;;;;4987827;28;20045;-77
2022/12/10 10:30:47;;;;;;;46.53;40.78;;;-0.60;99.90;;;;;;4971242;28;20406;-76
2022/12/10 10:33:15;;;;;;;47.15;41.92;;;-0.50;99.90;;;;;;4996360;28;20096;-78
2022/12/10 10:35:53;;;;;;;46.08;41.10;;;-0.50;99.90;;;;;;4987151;28;20426;-77
2022/12/10 10:38:23;;;;;;;49.80;40.90;;;-0.50;99.90;;;;;;4980153;28;20141;-77
2022/12/10 10:40:53;;;;;;;46.70;41.75;;;-0.50;99.90;;;;;;4988089;28;20104;-77
2022/12/10 10:43:47;;;;;;;47.28;39.17;;;-0.40;99.90;;;;;;4992891;28;20033;-79
2022/12/10 10:46:36;;;;;;;43.60;38.28;;;-0.40;99.90;;;;;;4956095;28;20926;-77
2022/12/10 10:49:23;;;;;;;39.97;36.10;;;-0.50;99.90;;;;;;4977253;28;20129;-78
2022/12/10 10:51:59;;;;;;;49.78;42.17;;;-0.70;99.90;;;;;;4987265;28;20042;-78
2022/12/10 10:54:40;;;;;;;42.88;38.33;;;-0.60;99.90;;;;;;4970902;28;20516;-77
2022/12/10 10:57:23;;;;;;;47.42;41.88;;;-0.50;99.90;;;;;;4989265;28;20062;-78
2022/12/10 10:59:53;;;;;;;53.47;41.75;;;-0.60;99.90;;;;;;4988901;28;20062;-76
2022/12/10 11:02:36;;;;;;;51.00;40.33;;;-0.60;99.90;;;;;;4989358;28;20056;-76
2022/12/10 11:05:25;;;;;;;48.80;42.17;;;-0.60;99.90;;;;;;4990668;28;20109;-78
2022/12/10 11:08:29;;;;;;;45.25;40.22;;;-0.60;99.90;;;;;;4977772;28;20073;-77
2022/12/10 11:11:05;;;;;;;43.00;38.20;;;-0.70;99.90;;;;;;4971559;28;20041;-77
2022/12/10 11:13:35;;;;;;;50.63;42.03;;;-0.70;99.90;;;;;;4979199;28;20073;-77
2022/12/10 11:16:19;;;;;;;50.75;43.83;;;-0.80;99.90;;;;;;4995899;28;20275;-77
2022/12/10 11:19:02;;;;;;;52.83;45.30;;;-0.70;99.90;;;;;;4994801;28;20219;-77
2022/12/10 11:21:31;;;;;;;47.67;39.60;;;-0.60;99.90;;;;;;4990948;28;20062;-77
2022/12/10 11:23:59;;;;;;;43.78;39.00;;;-0.50;99.90;;;;;;4989468;28;20047;-77
2022/12/10 11:26:40;;;;;;;45.60;40.83;;;-0.50;99.90;;;;;;4974066;28;20096;-77
2022/12/10 11:29:22;;;;;;;48.38;40.85;;;-0.30;99.90;;;;;;4975356;28;20042;-78
2022/12/10 11:32:25;;;;;;;48.17;43.08;;;-0.30;99.90;;;;;;4987779;28;20285;-78
2022/12/10 11:35:07;;;;;;;53.13;47.50;;;-0.20;99.90;;;;;;4991379;28;20060;-78
2022/12/10 11:37:36;;;;;;;50.22;44.80;;;-0.30;99.90;;;;;;4987110;28;20069;-78
2022/12/10 11:40:18;;;;;;;51.15;45.63;;;-0.30;99.90;;;;;;4993049;28;20057;-77
2022/12/10 11:42:59;;;;;;;47.75;42.80;;;-0.30;99.90;;;;;;4968755;28;20461;-78
2022/12/10 11:46:11;;;;;;;50.67;45.67;;;-0.20;99.90;;;;;;4973166;28;20360;-77
2022/12/10 11:48:59;;;;;;;53.97;48.35;;;-0.30;99.90;;;;;;4988970;28;20129;-77
2022/12/10 11:51:46;;;;;;;55.78;49.22;;;-0.30;99.90;;;;;;4985669;28;20499;-78
2022/12/10 11:54:51;;;;;;;48.00;43.20;;;-0.20;99.90;;;;;;4988641;28;20425;-78
2022/12/10 11:57:56;;;;;;;47.92;43.00;;;-0.20;99.90;;;;;;4985997;28;20042;-77
2022/12/10 12:00:30;;;;;;;54.03;48.33;;;-0.40;99.90;;;;;;4985748;28;20049;-78
2022/12/10 12:03:25;;;;;;;46.42;41.53;;;-0.50;99.90;;;;;;4981266;28;20140;-78
2022/12/10 12:05:52;;;;;;;49.05;42.90;;;-0.50;99.90;;;;;;4984705;28;20088;-78
2022/12/10 12:08:30;;;;;;;46.83;40.08;;;-0.70;99.90;;;;;;4982562;28;20049;-78
2022/12/10 12:11:25;;;;;;;43.00;38.47;;;-0.70;99.90;;;;;;4974305;28;20056;-78
2022/12/10 12:14:02;;;;;;;40.05;35.83;;;-0.80;99.90;;;;;;4988608;28;20045;-78
2022/12/10 12:16:40;;;;;;;42.55;38.03;;;-1.00;99.90;;;;;;4982030;28;20868;-79
2022/12/10 12:19:28;;;;;;;44.17;39.38;;;-1.00;99.90;;;;;;4992258;28;20120;-77
2022/12/10 12:21:57;;;;;;;43.88;39.13;;;-0.90;99.90;;;;;;4967122;28;20041;-78
2022/12/10 12:24:38;;;;;;;44.03;39.30;;;-1.00;99.90;;;;;;4985435;28;20057;-77
2022/12/10 12:27:34;;;;;;;42.83;38.13;;;-0.80;99.90;;;;;;4982167;28;20428;-77
2022/12/10 12:30:27;;;;;;;;;;;-0.70;99.90;;;;;;4990453;28;20536;-77
2022/12/10 12:33:05;;;;;;;44.25;39.83;;;-0.50;99.90;;;;;;4992589;28;20345;-77
2022/12/10 12:35:48;;;;;;;42.85;38.58;;;-0.60;99.90;;;;;;4990720;28;20038;-77
2022/12/10 12:38:28;;;;;;;44.35;38.45;;;-0.70;99.90;;;;;;4991297;28;20046;-77
2022/12/10 12:40:57;;;;;;;44.25;39.42;;;-0.70;99.90;;;;;;4971653;28;20345;-76
2022/12/10 12:43:49;;;;;;;43.65;39.03;;;-0.70;99.90;;;;;;4988752;28;20087;-77
2022/12/10 12:46:58;;;;;;;42.45;37.90;;;-0.70;99.90;;;;;;4984694;28;20038;-77
2022/12/10 12:49:24;;;;;;;48.47;42.90;;;-0.70;99.90;;;;;;4927879;29;20055;-76
2022/12/10 12:52:03;;;;;;;47.00;41.58;;;-0.60;99.90;;;;;;4929024;28;20051;-76
2022/12/10 12:54:31;;;;;;;45.92;41.05;;;-0.60;99.90;;;;;;4963762;28;20050;-76
2022/12/10 12:57:04;;;;;;;44.10;39.38;;;-0.60;99.90;;;;;;4996671;28;20730;-77